createdAt,value
2018-06-11T00:01:43.445Z,11.23
2018-06-11T00:04:12.536Z,12.13
2018-06-11T00:06:41.596Z,11.10
2018-06-11T00:09:10.652Z,12.33
2018-06-11T00:11:39.738Z,12.13
2018-06-11T00:14:09.045Z,11.27
2018-06-11T00:16:38.102Z,12.17
2018-06-11T00:19:07.404Z,9.47
2018-06-11T00:21:36.709Z,11.67
2018-06-11T00:24:05.790Z,13.00
2018-06-11T00:26:35.197Z,12.87
2018-06-11T00:29:04.301Z,10.43
2018-06-11T00:31:33.366Z,11.30
2018-06-11T00:34:02.737Z,11.93
2018-06-11T00:36:31.895Z,9.80
2018-06-11T00:39:01.002Z,12.30
2018-06-11T00:41:30.403Z,12.47
2018-06-11T00:43:59.454Z,10.67
2018-06-11T00:46:28.721Z,12.13
2018-06-11T00:48:57.802Z,11.33
2018-06-11T00:51:27.121Z,10.50
2018-06-11T00:53:56.384Z,10.73
2018-06-11T00:56:25.525Z,11.73
2018-06-11T00:58:54.861Z,12.17
2018-06-11T01:01:23.938Z,12.20
2018-06-11T01:03:53.086Z,11.30
2018-06-11T01:06:22.409Z,11.43
2018-06-11T01:08:51.457Z,12.20
2018-06-11T01:11:20.589Z,11.90
2018-06-11T01:13:49.887Z,13.50
2018-06-11T01:16:19.389Z,13.90
2018-06-11T01:18:48.731Z,13.57
2018-06-11T01:21:18.082Z,12.83
2018-06-11T01:23:47.155Z,13.80
2018-06-11T01:26:16.819Z,13.97
2018-06-11T01:28:45.915Z,11.67
2018-06-11T01:31:15.309Z,14.23
2018-06-11T01:33:44.451Z,10.60
2018-06-11T01:36:13.525Z,14.27
2018-06-11T01:38:42.659Z,14.10
2018-06-11T01:41:11.764Z,14.13
2018-06-11T01:43:40.829Z,14.10
2018-06-11T01:46:09.920Z,13.57
2018-06-11T01:48:39.016Z,11.50
2018-06-11T01:51:08.451Z,12.70
2018-06-11T01:53:37.517Z,15.40
2018-06-11T01:56:06.825Z,14.30
2018-06-11T01:58:36.100Z,11.03
2018-06-11T02:01:05.401Z,13.53
2018-06-11T02:03:34.522Z,11.20
2018-06-11T02:06:03.809Z,13.10
2018-06-11T02:08:32.863Z,10.00
2018-06-11T02:11:02.195Z,12.43
2018-06-11T02:13:31.471Z,11.63
2018-06-11T02:16:00.523Z,13.93
2018-06-11T02:18:30.509Z,11.70
2018-06-11T02:21:00.061Z,13.77
2018-06-11T02:23:29.205Z,14.30
2018-06-11T02:25:58.293Z,14.43
2018-06-11T02:28:27.377Z,12.87
2018-06-11T02:30:56.460Z,15.03
2018-06-11T02:33:25.513Z,15.00
2018-06-11T02:35:54.582Z,15.77
2018-06-11T02:38:24.025Z,16.27
2018-06-11T02:40:53.135Z,12.73
2018-06-11T02:43:22.427Z,16.57
2018-06-11T02:45:51.545Z,16.27
2018-06-11T02:48:20.821Z,16.87
2018-06-11T02:50:49.929Z,16.37
2018-06-11T02:53:19.456Z,15.57
2018-06-11T02:55:48.630Z,17.30
2018-06-11T02:58:17.710Z,17.80
2018-06-11T03:00:46.855Z,19.67
2018-06-11T03:03:16.147Z,17.93
2018-06-11T03:05:45.242Z,19.43
2018-06-11T03:08:14.466Z,17.40
2018-06-11T03:10:43.736Z,15.13
2018-06-11T03:13:13.010Z,16.57
2018-06-11T03:15:42.297Z,14.23
2018-06-11T03:18:11.608Z,16.10
2018-06-11T03:20:40.718Z,11.00
2018-06-11T03:23:10.049Z,14.80
2018-06-11T03:25:39.099Z,13.43
2018-06-11T03:28:08.161Z,16.63
2018-06-11T03:30:37.264Z,16.37
2018-06-11T03:33:06.556Z,17.73
2018-06-11T03:35:35.636Z,15.30
2018-06-11T03:38:04.833Z,18.33
2018-06-11T03:40:33.932Z,14.87
2018-06-11T03:43:03.041Z,15.43
2018-06-11T03:45:32.105Z,12.23
2018-06-11T03:48:01.205Z,14.60
2018-06-11T03:50:30.289Z,11.73
2018-06-11T03:52:59.379Z,13.90
2018-06-11T03:55:28.466Z,13.80
2018-06-11T03:57:57.753Z,11.30
2018-06-11T04:00:26.877Z,15.10
2018-06-11T04:02:55.940Z,18.03
2018-06-11T04:05:25.221Z,19.13
2018-06-11T04:07:54.355Z,19.17
2018-06-11T04:10:23.426Z,18.27
2018-06-11T04:12:52.481Z,18.47
2018-06-11T04:15:21.655Z,14.63
2018-06-11T04:17:50.705Z,16.00
2018-06-11T04:20:20.023Z,14.23
2018-06-11T04:22:49.121Z,18.13
2018-06-11T04:25:18.460Z,16.17
2018-06-11T04:27:47.506Z,15.73
2018-06-11T04:30:16.813Z,16.97
2018-06-11T04:32:45.894Z,14.63
2018-06-11T04:35:14.952Z,16.90
2018-06-11T04:37:44.094Z,15.47
2018-06-11T04:40:13.439Z,15.70
2018-06-11T04:42:42.563Z,15.07
2018-06-11T04:45:11.881Z,16.37
2018-06-11T04:47:47.369Z,14.23
2018-06-11T04:50:16.712Z,15.67
2018-06-11T04:52:45.760Z,14.77
2018-06-11T04:55:14.908Z,11.40
2018-06-11T04:57:43.998Z,15.03
2018-06-11T05:00:13.301Z,16.13
2018-06-11T05:02:42.574Z,16.30
2018-06-11T05:05:11.772Z,17.10
2018-06-11T05:07:40.840Z,14.93
2018-06-11T05:10:09.913Z,12.40
2018-06-11T05:12:39.065Z,14.80
2018-06-11T05:15:08.917Z,16.60
2018-06-11T05:17:38.885Z,16.03
2018-06-11T05:20:08.241Z,16.77
2018-06-11T05:22:37.272Z,18.97
2018-06-11T05:25:07.329Z,18.83
2018-06-11T05:27:36.562Z,17.00
2018-06-11T05:30:05.990Z,18.97
2018-06-11T05:32:35.114Z,18.33
2018-06-11T05:35:04.306Z,15.63
2018-06-11T05:37:39.948Z,14.50
2018-06-11T05:40:09.049Z,13.60
2018-06-11T05:42:38.142Z,16.43
2018-06-11T05:45:07.286Z,16.20
2018-06-11T05:47:36.640Z,15.90
2018-06-11T05:50:05.797Z,14.93
2018-06-11T05:52:35.046Z,16.73
2018-06-11T05:55:04.579Z,16.63
2018-06-11T05:57:33.633Z,10.30
2018-06-11T06:00:03.131Z,10.17
2018-06-11T06:02:32.353Z,13.77
2018-06-11T06:05:01.795Z,15.73
2018-06-11T06:07:31.145Z,14.10
2018-06-11T06:10:01.078Z,12.70
2018-06-11T06:12:30.353Z,15.70
2018-06-11T06:14:59.429Z,15.97
2018-06-11T06:17:28.957Z,16.60
2018-06-11T06:19:58.049Z,12.93
2018-06-11T06:22:27.093Z,12.07
2018-06-11T06:24:56.158Z,13.87
2018-06-11T06:27:25.274Z,16.53
2018-06-11T06:29:54.628Z,15.93
2018-06-11T06:32:23.741Z,17.27
2018-06-11T06:34:53.206Z,16.87
2018-06-11T06:37:22.285Z,16.80
2018-06-11T06:39:51.653Z,18.60
2018-06-11T06:42:20.721Z,18.37
2018-06-11T06:44:50.011Z,17.73
2018-06-11T06:47:19.373Z,17.37
2018-06-11T06:49:48.451Z,15.17
2018-06-11T06:52:17.869Z,18.40
2018-06-11T06:54:46.989Z,17.73
2018-06-11T06:57:16.614Z,15.93
2018-06-11T06:59:45.921Z,17.00
2018-06-11T07:02:15.254Z,14.20
2018-06-11T07:04:44.560Z,20.87
2018-06-11T07:07:13.769Z,18.80
2018-06-11T07:09:43.112Z,17.73
2018-06-11T07:12:12.441Z,16.50
2018-06-11T07:14:41.735Z,16.07
2018-06-11T07:17:10.973Z,18.00
2018-06-11T07:19:40.030Z,16.60
2018-06-11T07:22:09.320Z,20.70
2018-06-11T07:24:38.445Z,12.93
2018-06-11T07:27:07.728Z,11.57
2018-06-11T07:29:36.995Z,11.70
2018-06-11T07:32:06.130Z,11.70
2018-06-11T07:34:35.193Z,12.40
2018-06-11T07:37:04.591Z,14.60
2018-06-11T07:39:35.553Z,11.07
2018-06-11T07:42:04.620Z,11.37
2018-06-11T07:44:33.935Z,13.23
2018-06-11T07:47:03.301Z,11.53
2018-06-11T07:49:32.379Z,12.90
2018-06-11T07:52:01.469Z,12.40
2018-06-11T07:54:30.850Z,11.40
2018-06-11T07:57:00.461Z,15.97
2018-06-11T07:59:30.111Z,12.90
2018-06-11T08:01:59.438Z,12.70
2018-06-11T08:04:28.833Z,12.00
2018-06-11T08:06:58.302Z,16.77
2018-06-11T08:09:27.373Z,14.50
2018-06-11T08:11:56.769Z,15.57
2018-06-11T08:14:26.253Z,14.83
2018-06-11T08:16:55.766Z,12.23
2018-06-11T08:19:24.874Z,11.80
2018-06-11T08:21:54.080Z,11.53
2018-06-11T08:24:23.375Z,11.80
2018-06-11T08:26:52.421Z,11.10
2018-06-11T08:29:21.534Z,12.00
2018-06-11T08:31:50.612Z,10.30
2018-06-11T08:34:20.378Z,13.07
2018-06-11T08:36:49.477Z,15.30
2018-06-11T08:39:18.667Z,12.20
2018-06-11T08:41:47.837Z,12.50
2018-06-11T08:44:17.457Z,12.80
2018-06-11T08:46:47.430Z,13.20
2018-06-11T08:49:18.250Z,10.83
2018-06-11T08:51:47.338Z,11.03
2018-06-11T08:54:16.425Z,10.80
2018-06-11T08:56:46.037Z,11.30
2018-06-11T08:59:16.141Z,10.83
2018-06-11T09:01:45.257Z,11.03
2018-06-11T09:04:15.066Z,11.23
2018-06-11T09:06:46.375Z,10.27
2018-06-11T09:09:16.020Z,10.77
2018-06-11T09:11:45.350Z,10.20
2018-06-11T09:14:14.522Z,9.90
2018-06-11T09:16:45.098Z,8.97
2018-06-11T09:19:15.118Z,8.50
2018-06-11T09:21:45.505Z,9.23
2018-06-11T09:24:20.408Z,9.77
2018-06-11T09:26:49.453Z,10.60
2018-06-11T09:29:19.037Z,9.50
2018-06-11T09:31:49.359Z,9.37
2018-06-11T09:34:19.918Z,9.00
2018-06-11T09:36:49.493Z,9.70
2018-06-11T09:39:18.814Z,8.63
2018-06-11T09:41:48.125Z,8.30
2018-06-11T09:44:17.952Z,8.13
2018-06-11T09:46:51.329Z,8.20
2018-06-11T09:49:20.786Z,9.77
2018-06-11T09:51:50.144Z,6.70
2018-06-11T09:54:20.777Z,7.13
2018-06-11T09:56:50.327Z,6.97
2018-06-11T09:59:19.694Z,6.70
2018-06-11T10:01:49.026Z,6.50
2018-06-11T10:04:18.194Z,6.73
2018-06-11T10:06:47.544Z,6.13
2018-06-11T10:09:17.507Z,6.23
2018-06-11T10:11:48.115Z,6.13
2018-06-11T10:14:17.504Z,7.00
2018-06-11T10:16:48.233Z,6.07
2018-06-11T10:19:17.476Z,6.60
2018-06-11T10:21:46.598Z,5.90
2018-06-11T10:24:15.741Z,5.60
2018-06-11T10:26:44.862Z,5.40
2018-06-11T10:29:13.958Z,7.17
2018-06-11T10:31:43.273Z,5.67
2018-06-11T10:34:13.214Z,4.80
2018-06-11T10:36:42.429Z,4.60
2018-06-11T10:39:11.872Z,4.43
2018-06-11T10:41:41.158Z,5.00
2018-06-11T10:44:10.249Z,5.10
2018-06-11T10:46:39.669Z,4.80
2018-06-11T10:49:08.761Z,5.13
2018-06-11T10:51:37.960Z,4.70
2018-06-11T10:54:07.128Z,4.53
2018-06-11T10:56:36.215Z,5.03
2018-06-11T10:59:05.331Z,5.50
2018-06-11T11:01:34.636Z,4.90
2018-06-11T11:04:03.729Z,4.70
2018-06-11T11:06:32.788Z,4.20
2018-06-11T11:09:01.886Z,4.63
2018-06-11T11:11:31.240Z,4.63
2018-06-11T11:14:00.313Z,4.57
2018-06-11T11:16:29.824Z,4.40
2018-06-11T11:18:59.273Z,3.83
2018-06-11T11:21:28.321Z,4.23
2018-06-11T11:23:57.381Z,3.87
2018-06-11T11:26:26.620Z,4.70
2018-06-11T11:28:55.986Z,4.03
2018-06-11T11:31:25.183Z,4.50
2018-06-11T11:33:54.524Z,3.97
2018-06-11T11:36:23.616Z,4.20
2018-06-11T11:38:52.945Z,6.50
2018-06-11T11:41:22.148Z,4.07
2018-06-11T11:43:51.453Z,4.73
2018-06-11T11:46:21.061Z,4.20
2018-06-11T11:48:50.270Z,5.13
2018-06-11T11:51:19.359Z,4.97
2018-06-11T11:53:48.528Z,4.67
2018-06-11T11:56:17.758Z,4.30
2018-06-11T11:58:46.870Z,4.20
2018-06-11T12:01:16.323Z,3.40
2018-06-11T12:03:45.481Z,4.00
2018-06-11T12:06:14.603Z,3.60
2018-06-11T12:08:43.896Z,3.73
2018-06-11T12:11:13.346Z,3.60
2018-06-11T12:13:43.016Z,4.53
2018-06-11T12:16:12.497Z,3.90
2018-06-11T12:18:41.729Z,4.40
2018-06-11T12:21:10.915Z,3.87
2018-06-11T12:23:40.206Z,3.80
2018-06-11T12:26:09.488Z,3.60
2018-06-11T12:28:39.714Z,3.90
2018-06-11T12:31:08.876Z,4.30
2018-06-11T12:33:37.928Z,3.63
2018-06-11T12:36:07.215Z,4.20
2018-06-11T12:38:36.562Z,3.70
2018-06-11T12:41:05.861Z,3.30
2018-06-11T12:43:35.141Z,3.50
2018-06-11T12:46:04.384Z,3.00
2018-06-11T12:48:34.238Z,3.40
2018-06-11T12:51:03.295Z,3.30
2018-06-11T12:53:32.647Z,3.63
2018-06-11T12:56:01.799Z,3.10
2018-06-11T12:58:31.373Z,3.30
2018-06-11T13:01:00.496Z,3.30
2018-06-11T13:03:29.847Z,3.40
2018-06-11T13:05:58.914Z,4.23
2018-06-11T13:08:28.213Z,3.80
2018-06-11T13:10:57.419Z,3.40
2018-06-11T13:13:26.669Z,3.20
2018-06-11T13:15:55.896Z,3.57
2018-06-11T13:18:26.041Z,3.60
2018-06-11T13:20:57.351Z,3.50
2018-06-11T13:23:26.469Z,3.70
2018-06-11T13:25:55.921Z,3.27
2018-06-11T13:28:25.035Z,3.40
2018-06-11T13:30:54.545Z,3.90
2018-06-11T13:33:23.806Z,3.10
2018-06-11T13:35:53.057Z,3.70
2018-06-11T13:38:22.131Z,3.97
2018-06-11T13:40:52.736Z,3.80
2018-06-11T13:43:22.639Z,3.90
2018-06-11T13:45:51.862Z,3.97
2018-06-11T13:48:22.256Z,3.43
2018-06-11T13:50:58.425Z,3.20
2018-06-11T13:53:27.657Z,3.10
2018-06-11T13:55:59.215Z,3.50
2018-06-11T13:58:28.851Z,3.03
2018-06-11T14:00:59.911Z,3.10
2018-06-11T14:03:29.090Z,3.27
2018-06-11T14:05:58.485Z,3.40
2018-06-11T14:08:27.588Z,3.50
2018-06-11T14:10:56.692Z,3.33
2018-06-11T14:13:26.104Z,3.27
2018-06-11T14:15:55.152Z,3.70
2018-06-11T14:18:24.245Z,3.30
2018-06-11T14:20:53.784Z,3.37
2018-06-11T14:23:22.826Z,4.00
2018-06-11T14:25:52.049Z,3.27
2018-06-11T14:28:21.152Z,4.00
2018-06-11T14:30:50.497Z,3.60
2018-06-11T14:33:19.605Z,3.63
2018-06-11T14:35:48.942Z,3.70
2018-06-11T14:38:18.496Z,2.80
2018-06-11T14:40:47.578Z,3.23
2018-06-11T14:43:16.652Z,3.47
2018-06-11T14:45:45.701Z,3.47
2018-06-11T14:48:15.007Z,4.40
2018-06-11T14:50:44.077Z,4.87
2018-06-11T14:53:13.150Z,4.20
2018-06-11T14:55:42.702Z,4.17
2018-06-11T14:58:12.137Z,4.27
2018-06-11T15:00:41.329Z,3.50
2018-06-11T15:03:10.633Z,3.50
2018-06-11T15:05:39.691Z,3.70
2018-06-11T15:08:08.735Z,3.37
2018-06-11T15:10:37.840Z,3.50
2018-06-11T15:13:06.947Z,3.60
2018-06-11T15:15:36.014Z,3.77
2018-06-11T15:18:05.669Z,3.70
2018-06-11T15:20:34.737Z,3.67
2018-06-11T15:23:03.778Z,3.77
2018-06-11T15:25:32.989Z,3.90
2018-06-11T15:28:02.042Z,3.60
2018-06-11T15:30:31.102Z,3.17
2018-06-11T15:33:00.256Z,3.57
2018-06-11T15:35:29.357Z,3.60
2018-06-11T15:37:58.436Z,3.40
2018-06-11T15:40:27.505Z,3.47
2018-06-11T15:42:56.598Z,3.60
2018-06-11T15:45:25.694Z,3.23
2018-06-11T15:47:55.031Z,3.90
2018-06-11T15:50:24.102Z,3.73
2018-06-11T15:52:53.620Z,3.63
2018-06-11T15:55:22.749Z,3.47
2018-06-11T15:57:52.055Z,4.30
2018-06-11T16:00:21.514Z,3.50
2018-06-11T16:02:50.607Z,3.63
2018-06-11T16:05:19.759Z,4.07
2018-06-11T16:07:48.846Z,4.30
2018-06-11T16:10:17.941Z,3.80
2018-06-11T16:12:47.037Z,4.43
2018-06-11T16:15:16.121Z,4.20
2018-06-11T16:17:45.211Z,3.90
2018-06-11T16:20:14.300Z,3.70
2018-06-11T16:22:43.614Z,3.83
2018-06-11T16:25:12.804Z,3.50
2018-06-11T16:27:41.908Z,3.83
2018-06-11T16:30:11.039Z,4.00
2018-06-11T16:32:40.220Z,4.20
2018-06-11T16:35:09.632Z,4.20
2018-06-11T16:37:38.989Z,3.60
2018-06-11T16:40:08.229Z,3.47
2018-06-11T16:42:37.352Z,3.60
2018-06-11T16:45:06.693Z,5.37
2018-06-11T16:47:36.067Z,4.00
2018-06-11T16:50:05.118Z,4.13
2018-06-11T16:52:34.449Z,4.07
2018-06-11T16:55:03.606Z,4.03
2018-06-11T16:57:32.994Z,4.40
2018-06-11T17:00:02.378Z,3.70
2018-06-11T17:02:31.547Z,4.23
2018-06-11T17:05:00.703Z,3.87
2018-06-11T17:07:29.815Z,3.90
2018-06-11T17:09:59.032Z,3.90
2018-06-11T17:12:28.304Z,4.30
2018-06-11T17:14:57.678Z,4.43
2018-06-11T17:17:26.809Z,4.23
2018-06-11T17:19:56.077Z,4.30
2018-06-11T17:22:25.540Z,4.60
2018-06-11T17:24:54.785Z,4.73
2018-06-11T17:27:23.953Z,3.57
2018-06-11T17:30:03.347Z,5.07
2018-06-11T17:32:33.968Z,4.17
2018-06-11T17:35:03.056Z,4.40
2018-06-11T17:37:32.123Z,4.13
2018-06-11T17:40:01.522Z,4.87
2018-06-11T17:42:30.638Z,4.83
2018-06-11T17:44:59.771Z,4.90
2018-06-11T17:47:28.858Z,4.90
2018-06-11T17:49:58.809Z,4.80
2018-06-11T17:52:28.118Z,5.00
2018-06-11T17:54:57.241Z,4.97
2018-06-11T17:57:26.615Z,4.90
2018-06-11T17:59:55.720Z,4.73
2018-06-11T18:02:25.155Z,4.83
2018-06-11T18:04:54.331Z,4.40
2018-06-11T18:07:23.400Z,4.57
2018-06-11T18:09:52.864Z,4.97
2018-06-11T18:12:22.202Z,4.70
2018-06-11T18:14:51.406Z,4.30
2018-06-11T18:17:21.256Z,4.70
2018-06-11T18:19:50.595Z,4.90
2018-06-11T18:22:20.050Z,5.17
2018-06-11T18:24:49.428Z,5.70
2018-06-11T18:27:18.543Z,4.40
2018-06-11T18:29:47.649Z,4.57
2018-06-11T18:32:16.861Z,4.60
2018-06-11T18:34:46.179Z,3.97
2018-06-11T18:37:15.476Z,5.73
2018-06-11T18:39:44.577Z,4.70
2018-06-11T18:42:13.637Z,4.23
2018-06-11T18:44:43.010Z,4.10
2018-06-11T18:47:12.308Z,3.50
2018-06-11T18:49:41.377Z,3.50
2018-06-11T18:52:10.697Z,3.77
2018-06-11T18:54:40.098Z,3.67
2018-06-11T18:57:09.649Z,3.87
2018-06-11T18:59:38.950Z,3.60
2018-06-11T19:02:08.050Z,4.33
2018-06-11T19:04:37.502Z,4.17
2018-06-11T19:07:06.592Z,3.80
2018-06-11T19:09:35.743Z,4.00
2018-06-11T19:12:04.985Z,3.90
2018-06-11T19:14:34.330Z,4.80
2018-06-11T19:17:03.781Z,3.60
2018-06-11T19:19:33.095Z,4.17
2018-06-11T19:22:02.397Z,3.70
2018-06-11T19:24:31.509Z,3.60
2018-06-11T19:27:00.605Z,3.30
2018-06-11T19:29:29.685Z,6.87
2018-06-11T19:31:59.021Z,4.00
2018-06-11T19:34:28.149Z,8.67
2018-06-11T19:36:57.466Z,7.40
2018-06-11T19:39:26.616Z,3.57
2018-06-11T19:41:55.734Z,3.47
2018-06-11T19:44:24.833Z,3.73
2018-06-11T19:46:54.160Z,6.10
2018-06-11T19:49:23.438Z,4.00
2018-06-11T19:51:52.515Z,4.23
2018-06-11T19:54:21.693Z,4.20
2018-06-11T19:56:50.752Z,4.80
2018-06-11T19:59:19.829Z,4.70
2018-06-11T20:01:49.126Z,4.70
2018-06-11T20:04:18.633Z,4.20
2018-06-11T20:06:47.724Z,4.17
2018-06-11T20:09:16.930Z,4.27
2018-06-11T20:11:46.462Z,4.10
2018-06-11T20:14:15.761Z,4.00
2018-06-11T20:16:44.873Z,4.43
2018-06-11T20:19:14.276Z,3.90
2018-06-11T20:21:43.485Z,4.37
2018-06-11T20:24:12.763Z,4.47
2018-06-11T20:26:41.886Z,4.90
2018-06-11T20:29:11.316Z,6.07
2018-06-11T20:31:40.692Z,7.00
2018-06-11T20:34:10.041Z,4.27
2018-06-11T20:36:39.172Z,4.13
2018-06-11T20:39:08.626Z,5.27
2018-06-11T20:41:38.139Z,3.83
2018-06-11T20:44:07.533Z,4.77
2018-06-11T20:46:36.820Z,3.87
2018-06-11T20:49:05.977Z,3.97
2018-06-11T20:51:35.318Z,3.83
2018-06-11T20:54:04.526Z,3.57
2018-06-11T20:56:33.678Z,3.87
2018-06-11T20:59:03.475Z,3.33
2018-06-11T21:01:33.056Z,3.57
2018-06-11T21:04:02.291Z,3.60
2018-06-11T21:06:31.668Z,3.77
2018-06-11T21:09:00.923Z,4.00
2018-06-11T21:11:30.218Z,4.50
2018-06-11T21:13:59.601Z,3.97
2018-06-11T21:16:28.945Z,4.50
2018-06-11T21:18:58.256Z,4.30
2018-06-11T21:21:28.672Z,4.30
2018-06-11T21:23:57.879Z,4.20
2018-06-11T21:26:27.110Z,4.20
2018-06-11T21:28:56.800Z,4.20
2018-06-11T21:31:26.138Z,4.00
2018-06-11T21:33:55.439Z,4.30
2018-06-11T21:36:24.941Z,4.47
2018-06-11T21:38:54.341Z,4.33
2018-06-11T21:41:23.874Z,4.63
2018-06-11T21:43:53.875Z,5.10
2018-06-11T21:46:23.067Z,4.63
2018-06-11T21:48:52.373Z,4.10
2018-06-11T21:51:22.800Z,4.10
2018-06-11T21:53:52.057Z,4.60
2018-06-11T21:56:21.124Z,4.60
2018-06-11T21:58:50.777Z,4.63
2018-06-11T22:01:21.832Z,4.50
2018-06-11T22:03:51.533Z,4.43
2018-06-11T22:06:20.617Z,4.33
2018-06-11T22:08:49.681Z,4.40
2018-06-11T22:11:19.069Z,4.53
2018-06-11T22:13:48.249Z,4.97
2018-06-11T22:16:17.324Z,4.10
2018-06-11T22:18:46.485Z,4.20
2018-06-11T22:21:15.701Z,4.90
2018-06-11T22:23:44.953Z,4.60
2018-06-11T22:26:14.135Z,4.57
2018-06-11T22:28:43.277Z,4.40
2018-06-11T22:31:12.870Z,4.53
2018-06-11T22:33:43.338Z,4.80
2018-06-11T22:36:13.478Z,4.65
2018-06-11T22:38:43.510Z,5.27
2018-06-11T22:41:13.715Z,4.83
2018-06-11T22:43:43.297Z,4.10
2018-06-11T22:46:12.438Z,4.23
2018-06-11T22:48:41.720Z,4.30
2018-06-11T22:51:10.862Z,4.63
2018-06-11T22:53:40.853Z,4.73
2018-06-11T22:56:09.980Z,4.60
2018-06-11T22:58:39.050Z,4.70
2018-06-11T23:01:08.142Z,4.70
2018-06-11T23:03:37.329Z,5.17
2018-06-11T23:06:06.434Z,5.10
2018-06-11T23:08:35.601Z,4.70
2018-06-11T23:11:04.941Z,5.60
2018-06-11T23:13:35.792Z,5.00
2018-06-11T23:16:06.589Z,4.60
2018-06-11T23:18:37.732Z,5.20
2018-06-11T23:21:08.280Z,4.90
2018-06-11T23:23:38.112Z,4.90
2018-06-11T23:26:07.166Z,4.67
2018-06-11T23:28:36.495Z,5.20
2018-06-11T23:31:05.895Z,5.10
2018-06-11T23:33:34.961Z,5.00
2018-06-11T23:36:04.137Z,4.40
2018-06-11T23:38:34.171Z,5.17
2018-06-11T23:41:03.329Z,5.03
2018-06-11T23:43:32.405Z,4.67
2018-06-11T23:46:01.754Z,5.47
2018-06-11T23:48:30.860Z,4.70
2018-06-11T23:50:59.939Z,5.17
2018-06-11T23:53:29.009Z,4.80
2018-06-11T23:55:58.289Z,5.33
2018-06-11T23:58:27.370Z,4.50
